Time;durP1;ratioP1;P1;durP2;ratioP2;P2;SDS_P1;SDS_P2;PMS_P1;PMS_P2;Temp;Humidity;BMP_temperature;BMP_pressure;BME280_temperature;BME280_humidity;BME280_pressure;Samples;Min_cycle;Max_cycle;Signal;HPM_P1;HPM_P2
2022/11/10 00:00:43;;;;;;;0.80;0.80;;;13.10;97.30;;;;;;5013664;28;20197;-87
2022/11/10 00:03:09;;;;;;;2.43;2.20;;;13.00;97.30;;;;;;4998442;28;20205;-87
2022/11/10 00:05:37;;;;;;;1.10;1.00;;;13.00;97.30;;;;;;5015861;28;20767;-87
2022/11/10 00:08:04;;;;;;;0.90;0.80;;;12.90;97.30;;;;;;4998440;28;20438;-87
2022/11/10 00:10:30;;;;;;;4.63;1.37;;;12.90;97.30;;;;;;4997994;28;21001;-86
2022/11/10 00:13:00;;;;;;;1.00;0.90;;;12.90;97.30;;;;;;5016025;28;20847;-87
2022/11/10 00:18:10;;;;;;;5.03;1.40;;;12.90;97.30;;;;;;5015877;28;20395;-86
2022/11/10 00:20:35;;;;;;;0.90;0.80;;;12.80;97.30;;;;;;4997201;28;20432;-86
2022/11/10 00:23:01;;;;;;;1.53;1.43;;;12.90;97.30;;;;;;4999728;28;20197;-87
2022/11/10 00:25:27;;;;;;;0.90;0.80;;;12.80;97.30;;;;;;5000233;28;20176;-87
2022/11/10 00:27:52;;;;;;;2.60;1.80;;;12.80;97.30;;;;;;5002565;28;20656;-87
2022/11/10 00:30:18;;;;;;;1.13;1.03;;;12.70;97.30;;;;;;5003575;28;20416;-86
2022/11/10 00:32:45;;;;;;;1.53;1.00;;;12.60;97.30;;;;;;5004146;28;20874;-87
2022/11/10 00:35:10;;;;;;;1.43;1.40;;;12.60;97.30;;;;;;5012947;28;20692;-86
2022/11/10 00:37:36;;;;;;;1.20;1.10;;;12.50;97.30;;;;;;5011794;28;20480;-87
2022/11/10 00:40:01;;;;;;;1.13;1.10;;;12.60;97.30;;;;;;5014386;28;20173;-87
2022/11/10 00:42:27;;;;;;;1.20;1.10;;;12.60;97.30;;;;;;5010271;28;20205;-87
2022/11/10 00:44:52;;;;;;;1.20;1.10;;;12.50;97.30;;;;;;4997685;28;20558;-87
2022/11/10 00:47:18;;;;;;;1.00;0.90;;;12.50;97.30;;;;;;4997700;28;20177;-87
2022/11/10 00:49:43;;;;;;;3.17;1.10;;;12.50;97.30;;;;;;4997648;28;20181;-87
2022/11/10 00:52:09;;;;;;;2.50;1.07;;;12.50;97.30;;;;;;4993873;28;20233;-86
2022/11/10 00:54:34;;;;;;;1.27;1.17;;;12.50;97.30;;;;;;4997165;28;20174;-86
2022/11/10 00:57:00;;;;;;;1.33;1.23;;;12.40;97.30;;;;;;5014842;28;20185;-87
2022/11/10 00:59:25;;;;;;;1.10;1.00;;;12.30;97.30;;;;;;4996391;28;20270;-86
2022/11/10 01:01:51;;;;;;;1.10;1.00;;;12.30;97.30;;;;;;4997257;28;20792;-87
2022/11/10 01:04:16;;;;;;;1.17;1.10;;;12.20;97.30;;;;;;4997620;28;20544;-87
2022/11/10 01:06:42;;;;;;;4.17;1.00;;;12.30;97.30;;;;;;4997634;28;20271;-87
2022/11/10 01:09:08;;;;;;;1.40;1.30;;;12.30;97.30;;;;;;4997216;28;20187;-86
2022/11/10 01:11:33;;;;;;;2.60;1.87;;;12.30;97.30;;;;;;4996723;28;20209;-87
2022/11/10 01:13:59;;;;;;;1.13;1.10;;;12.20;97.30;;;;;;4996676;28;20189;-87
2022/11/10 01:16:30;;;;;;;1.67;1.50;;;12.20;97.30;;;;;;4996888;28;20227;-87
2022/11/10 01:18:59;;;;;;;1.57;1.47;;;12.20;97.30;;;;;;4997289;28;20231;-87
2022/11/10 01:21:26;;;;;;;1.07;1.00;;;12.20;97.30;;;;;;4997022;28;20480;-87
2022/11/10 01:23:52;;;;;;;1.10;1.00;;;12.20;97.30;;;;;;4996917;28;20503;-86
2022/11/10 01:26:18;;;;;;;1.30;1.20;;;12.20;97.30;;;;;;4996896;28;20426;-88
2022/11/10 01:28:44;;;;;;;1.10;1.00;;;12.10;97.30;;;;;;4996965;28;20424;-87
2022/11/10 01:31:19;;;;;;;0.90;0.80;;;12.10;97.30;;;;;;4996551;28;20471;-86
2022/11/10 01:33:44;;;;;;;1.87;1.50;;;12.10;97.30;;;;;;5013886;28;20856;-86
2022/11/10 01:36:11;;;;;;;1.90;1.43;;;12.00;97.30;;;;;;4996472;28;20417;-87
2022/11/10 01:38:39;;;;;;;1.10;1.00;;;12.00;97.30;;;;;;5014137;28;20176;-87
2022/11/10 01:41:06;;;;;;;1.50;1.30;;;11.90;97.30;;;;;;5013971;28;20436;-87
2022/11/10 01:43:32;;;;;;;1.43;1.33;;;11.90;97.30;;;;;;4996492;28;20514;-87
2022/11/10 01:46:04;;;;;;;1.23;1.13;;;11.90;97.30;;;;;;4996663;28;20926;-87
2022/11/10 01:48:49;;;;;;;6.33;1.20;;;11.90;97.30;;;;;;4996674;28;20428;-87
2022/11/10 01:51:30;;;;;;;0.97;0.87;;;11.80;97.30;;;;;;4995972;28;20629;-87
2022/11/10 01:53:59;;;;;;;3.10;1.53;;;11.80;97.30;;;;;;4996867;28;20416;-86
2022/11/10 01:56:28;;;;;;;2.30;2.10;;;11.80;97.30;;;;;;4995954;28;20420;-87
2022/11/10 01:58:58;;;;;;;1.47;1.00;;;11.80;97.30;;;;;;4996049;28;20420;-87
2022/11/10 02:01:24;;;;;;;1.47;1.37;;;11.70;97.30;;;;;;4996189;28;20444;-86
2022/11/10 02:03:54;;;;;;;1.37;1.20;;;11.70;97.30;;;;;;4996119;28;20416;-86
2022/11/10 02:06:24;;;;;;;1.10;1.00;;;11.70;97.30;;;;;;4996327;28;20447;-87
2022/11/10 02:08:51;;;;;;;1.70;1.60;;;11.60;97.30;;;;;;4996143;28;20424;-87
2022/11/10 02:11:16;;;;;;;3.27;1.20;;;11.70;97.30;;;;;;4996072;28;20460;-87
2022/11/10 02:13:42;;;;;;;1.53;1.43;;;11.60;97.30;;;;;;4996199;28;20922;-87
2022/11/10 02:16:09;;;;;;;1.07;1.00;;;11.70;97.30;;;;;;4995975;28;20177;-87
2022/11/10 02:18:35;;;;;;;1.03;0.93;;;11.70;97.30;;;;;;4996455;28;20177;-86
2022/11/10 02:21:06;;;;;;;7.70;2.27;;;11.60;97.30;;;;;;4995807;28;20498;-87
2022/11/10 02:23:34;;;;;;;1.30;1.20;;;11.70;97.30;;;;;;4996000;28;20423;-86
2022/11/10 02:26:05;;;;;;;2.40;1.20;;;11.70;97.30;;;;;;4995916;28;21111;-87
2022/11/10 02:28:36;;;;;;;0.70;0.70;;;11.60;97.30;;;;;;4996185;28;20907;-87
2022/11/10 02:31:03;;;;;;;2.20;1.93;;;11.60;97.30;;;;;;4995499;28;20447;-87
2022/11/10 02:33:28;;;;;;;2.07;1.63;;;11.60;97.30;;;;;;4995651;28;20416;-86
2022/11/10 02:35:54;;;;;;;1.13;1.03;;;11.60;97.30;;;;;;5013182;28;20415;-87
2022/11/10 02:38:20;;;;;;;1.40;1.20;;;11.60;97.30;;;;;;4995640;28;20852;-87
2022/11/10 02:40:48;;;;;;;2.00;1.53;;;11.50;97.30;;;;;;4995356;28;20197;-86
2022/11/10 02:43:15;;;;;;;1.00;0.90;;;11.50;97.30;;;;;;4995825;28;20185;-87
2022/11/10 02:45:44;;;;;;;1.10;1.00;;;11.50;97.30;;;;;;4995333;28;20911;-86
2022/11/10 02:48:11;;;;;;;1.00;0.90;;;11.50;97.30;;;;;;4995389;28;20992;-86
2022/11/10 02:50:37;;;;;;;1.33;1.10;;;11.60;97.30;;;;;;4994998;28;20444;-86
2022/11/10 02:53:03;;;;;;;2.60;1.73;;;11.50;97.30;;;;;;4996165;28;20460;-87
2022/11/10 02:55:29;;;;;;;6.83;1.07;;;11.50;97.30;;;;;;5015795;28;20184;-87
2022/11/10 02:57:54;;;;;;;3.37;1.00;;;11.50;97.30;;;;;;5013161;28;20184;-87
2022/11/10 03:00:20;;;;;;;1.00;0.90;;;11.50;97.30;;;;;;5020036;28;20243;-86
2022/11/10 03:02:46;;;;;;;4.00;2.83;;;11.40;97.30;;;;;;5018704;28;20239;-86
2022/11/10 03:05:11;;;;;;;2.30;1.87;;;11.40;97.30;;;;;;4996178;28;20210;-87
2022/11/10 03:07:37;;;;;;;1.30;1.20;;;11.30;97.30;;;;;;4995106;28;20203;-86
2022/11/10 03:10:04;;;;;;;1.00;0.90;;;11.40;97.30;;;;;;4995010;28;20188;-86
2022/11/10 03:12:30;;;;;;;1.87;1.50;;;11.30;97.30;;;;;;4994892;28;20213;-86
2022/11/10 03:14:55;;;;;;;1.00;0.90;;;11.30;97.30;;;;;;4995123;28;20466;-86
2022/11/10 03:17:21;;;;;;;1.00;0.90;;;11.30;97.30;;;;;;4978219;28;20182;-87
2022/11/10 03:19:48;;;;;;;1.70;1.60;;;11.30;97.30;;;;;;4975526;28;20182;-86
2022/11/10 03:22:13;;;;;;;1.67;1.57;;;11.30;97.30;;;;;;4977774;28;20210;-86
2022/11/10 03:24:39;;;;;;;3.73;2.00;;;11.30;97.30;;;;;;4979755;28;20432;-85
2022/11/10 03:27:04;;;;;;;1.17;1.07;;;11.20;97.30;;;;;;4979430;28;20632;-87
2022/11/10 03:29:30;;;;;;;67.00;2.07;;;11.20;97.30;;;;;;4979563;28;20174;-86
2022/11/10 03:31:55;;;;;;;1.23;1.13;;;11.20;97.30;;;;;;4996582;28;20582;-87
2022/11/10 03:34:21;;;;;;;2.97;1.17;;;11.20;97.30;;;;;;4979793;28;20297;-86
2022/11/10 03:36:47;;;;;;;9.33;1.57;;;11.10;97.30;;;;;;4978940;28;20303;-86
2022/11/10 03:39:12;;;;;;;1.37;1.27;;;11.10;97.30;;;;;;4979091;28;20166;-86
2022/11/10 03:41:38;;;;;;;1.00;0.90;;;11.10;97.30;;;;;;4983061;28;21442;-86
2022/11/10 03:44:03;;;;;;;1.10;1.00;;;11.10;97.30;;;;;;4992089;28;20659;-87
2022/11/10 03:46:29;;;;;;;1.17;1.07;;;11.10;97.30;;;;;;4978929;28;20178;-86
2022/11/10 03:48:54;;;;;;;3.90;2.80;;;11.00;97.30;;;;;;4983862;28;20173;-86
2022/11/10 03:51:20;;;;;;;1.00;0.90;;;11.10;97.30;;;;;;4995838;28;20239;-86
2022/11/10 03:53:46;;;;;;;18.63;1.60;;;11.10;97.30;;;;;;4979348;28;20178;-86
2022/11/10 03:56:12;;;;;;;6.30;1.30;;;11.20;97.30;;;;;;5003804;28;20424;-87
2022/11/10 03:58:37;;;;;;;1.47;1.37;;;11.20;97.30;;;;;;5016061;28;20169;-86
2022/11/10 04:01:03;;;;;;;1.53;1.50;;;11.20;97.30;;;;;;4997860;28;20255;-86
2022/11/10 04:03:29;;;;;;;1.17;1.07;;;11.10;97.30;;;;;;4998400;28;20173;-86
2022/11/10 04:16:50;;;;;;;1.73;1.63;;;10.90;97.30;;;;;;5015791;28;20427;-86
2022/11/10 04:19:16;;;;;;;1.17;1.07;;;10.80;97.30;;;;;;4997951;28;20412;-86
2022/11/10 04:21:41;;;;;;;3.30;1.73;;;10.80;97.30;;;;;;5014987;28;20705;-86
2022/11/10 04:24:07;;;;;;;7.90;1.87;;;10.80;97.30;;;;;;4997809;28;20173;-86
2022/11/10 04:26:36;;;;;;;1.63;1.43;;;10.80;97.30;;;;;;5015461;28;20217;-86
2022/11/10 04:29:07;;;;;;;1.03;1.00;;;10.80;97.30;;;;;;5015441;28;20427;-87
2022/11/10 04:31:36;;;;;;;2.53;1.47;;;10.80;97.30;;;;;;4997513;28;20474;-86
2022/11/10 04:34:02;;;;;;;2.93;2.70;;;10.80;97.30;;;;;;4996286;28;20416;-86
2022/11/10 04:36:30;;;;;;;7.50;1.87;;;10.80;97.30;;;;;;4997614;28;20424;-86
2022/11/10 04:38:56;;;;;;;2.40;1.60;;;10.90;97.30;;;;;;4997853;28;20409;-87
2022/11/10 04:41:22;;;;;;;1.13;1.03;;;10.80;97.30;;;;;;4997611;28;20466;-86
2022/11/10 04:43:48;;;;;;;2.10;1.33;;;10.80;97.30;;;;;;4997519;28;20177;-86
2022/11/10 04:46:24;;;;;;;1.10;1.00;;;10.80;97.30;;;;;;4997708;28;20503;-87
2022/11/10 04:48:50;;;;;;;1.00;0.90;;;10.70;97.30;;;;;;5015281;28;20184;-86
2022/11/10 04:51:17;;;;;;;1.30;1.20;;;10.70;97.30;;;;;;4997178;28;20478;-86
2022/11/10 04:53:42;;;;;;;2.33;2.13;;;10.70;97.30;;;;;;4997251;28;20500;-87
2022/11/10 04:56:14;;;;;;;1.20;1.10;;;10.70;97.30;;;;;;4997374;28;20516;-86
2022/11/10 04:58:39;;;;;;;1.80;1.43;;;10.60;97.30;;;;;;4997562;28;20173;-86
2022/11/10 05:01:05;;;;;;;1.00;0.90;;;10.60;97.30;;;;;;4997354;28;20490;-86
2022/11/10 05:03:30;;;;;;;4.20;1.73;;;10.60;97.30;;;;;;4997127;28;20647;-87
2022/11/10 05:05:56;;;;;;;2.10;1.10;;;10.60;97.30;;;;;;4997226;28;20636;-86
2022/11/10 05:08:21;;;;;;;2.47;2.07;;;10.50;97.30;;;;;;5014474;28;20578;-86
2022/11/10 05:10:47;;;;;;;1.10;1.00;;;10.50;97.30;;;;;;5014417;28;20745;-86
2022/11/10 05:13:12;;;;;;;1.30;1.20;;;10.40;97.30;;;;;;4996868;28;20227;-86
2022/11/10 05:15:40;;;;;;;1.37;1.27;;;10.40;97.30;;;;;;4996892;28;20173;-86
2022/11/10 05:18:05;;;;;;;1.20;1.10;;;10.40;97.30;;;;;;5014371;28;20169;-86
2022/11/10 05:20:31;;;;;;;1.00;0.90;;;10.40;97.30;;;;;;4996785;28;20417;-86
2022/11/10 05:25:41;;;;;;;2.20;1.30;;;10.50;97.30;;;;;;5014633;28;20168;-86
2022/11/10 05:28:09;;;;;;;2.00;1.77;;;10.50;97.30;;;;;;5014308;28;21098;-86
2022/11/10 05:30:34;;;;;;;1.30;1.20;;;10.50;97.30;;;;;;4996609;28;20523;-86
2022/11/10 05:33:01;;;;;;;1.77;1.67;;;10.50;97.30;;;;;;5014240;28;20539;-86
2022/11/10 05:35:27;;;;;;;1.20;1.10;;;10.40;97.30;;;;;;4996497;28;20176;-86
2022/11/10 05:37:52;;;;;;;3.53;1.63;;;10.40;97.30;;;;;;4996776;28;20412;-86
2022/11/10 05:40:18;;;;;;;2.77;2.57;;;10.30;97.30;;;;;;4996273;28;20264;-85
2022/11/10 05:42:51;;;;;;;1.63;1.53;;;10.30;97.30;;;;;;4996432;28;20212;-86
2022/11/10 05:45:18;;;;;;;1.10;1.00;;;10.30;97.30;;;;;;4996256;28;20201;-86
2022/11/10 05:47:44;;;;;;;1.40;1.30;;;10.30;97.30;;;;;;4996341;28;20953;-86
2022/11/10 05:50:10;;;;;;;1.37;1.10;;;10.20;97.30;;;;;;4996496;28;20499;-85
2022/11/10 05:52:42;;;;;;;2.50;1.60;;;10.20;97.30;;;;;;4994055;28;20220;-86
2022/11/10 05:55:08;;;;;;;1.33;1.23;;;10.20;97.30;;;;;;4994454;28;20409;-86
2022/11/10 05:57:33;;;;;;;2.83;2.53;;;10.20;97.30;;;;;;4994467;28;20416;-86
2022/11/10 05:59:59;;;;;;;1.43;1.33;;;10.20;97.30;;;;;;4993941;28;20419;-86
2022/11/10 06:02:29;;;;;;;1.33;1.20;;;10.20;97.30;;;;;;4994696;28;20188;-86
2022/11/10 06:04:55;;;;;;;1.60;1.50;;;10.20;97.30;;;;;;4994440;28;20209;-86
2022/11/10 06:07:20;;;;;;;1.20;1.10;;;10.20;97.30;;;;;;4992621;28;20453;-86
2022/11/10 06:09:47;;;;;;;1.10;1.00;;;10.30;97.30;;;;;;5012468;28;20516;-86
2022/11/10 06:12:13;;;;;;;1.10;1.00;;;10.20;97.30;;;;;;4995880;28;20244;-86
2022/11/10 06:14:38;;;;;;;5.77;2.53;;;10.10;97.30;;;;;;4991741;28;20455;-85
2022/11/10 06:17:04;;;;;;;1.60;1.50;;;10.20;97.30;;;;;;4995615;28;20419;-86
2022/11/10 06:19:30;;;;;;;1.27;1.17;;;10.20;97.30;;;;;;4995406;28;20177;-86
2022/11/10 06:21:56;;;;;;;1.40;1.30;;;10.30;97.30;;;;;;4995658;28;20875;-86
2022/11/10 06:24:22;;;;;;;2.30;1.77;;;10.20;97.30;;;;;;4995168;28;20173;-86
2022/11/10 06:26:47;;;;;;;1.27;1.17;;;10.30;97.30;;;;;;4995570;28;20419;-87
2022/11/10 06:29:13;;;;;;;1.13;1.03;;;10.20;97.30;;;;;;4994935;28;20554;-86
2022/11/10 06:31:38;;;;;;;1.53;1.43;;;10.20;97.30;;;;;;5013122;28;20200;-86
2022/11/10 06:34:04;;;;;;;1.50;1.40;;;10.20;97.30;;;;;;4995581;28;20831;-87
2022/11/10 06:36:29;;;;;;;1.30;1.20;;;10.10;97.30;;;;;;4995945;28;20173;-86
2022/11/10 06:38:55;;;;;;;1.10;1.00;;;10.20;97.30;;;;;;5006326;28;20261;-87
2022/11/10 06:41:20;;;;;;;1.20;1.10;;;10.20;97.30;;;;;;5011870;28;20229;-86
2022/11/10 06:43:46;;;;;;;1.17;1.07;;;10.30;97.30;;;;;;5011320;28;20201;-87
2022/11/10 06:46:14;;;;;;;1.63;1.40;;;10.20;97.30;;;;;;5011496;28;20192;-86
2022/11/10 06:48:39;;;;;;;1.73;1.67;;;10.20;97.30;;;;;;4995525;28;20415;-87
2022/11/10 06:51:07;;;;;;;1.37;1.37;;;10.20;97.30;;;;;;4986439;28;20992;-86
2022/11/10 06:53:33;;;;;;;5.07;2.10;;;10.20;97.30;;;;;;4995188;28;20176;-86
2022/11/10 06:55:58;;;;;;;1.30;1.17;;;10.30;97.30;;;;;;5009296;28;20604;-85
2022/11/10 06:58:24;;;;;;;14.67;2.17;;;10.30;97.30;;;;;;4996719;28;20702;-86
2022/11/10 07:00:49;;;;;;;0.90;0.90;;;10.30;97.30;;;;;;4995461;28;20216;-87
2022/11/10 07:03:18;;;;;;;1.30;1.30;;;10.30;97.30;;;;;;5003891;28;20197;-89
2022/11/10 07:05:43;;;;;;;2.80;1.37;;;10.20;97.30;;;;;;5019822;28;20161;-87
2022/11/10 07:08:14;;;;;;;6.10;2.07;;;10.20;97.30;;;;;;5037360;28;20416;-86
2022/11/10 07:10:41;;;;;;;1.20;1.17;;;10.20;97.30;;;;;;5012970;28;20300;-87
2022/11/10 07:13:08;;;;;;;1.77;1.70;;;10.20;97.30;;;;;;4996247;28;20462;-84
2022/11/10 07:15:34;;;;;;;1.70;1.60;;;10.20;97.30;;;;;;4996099;28;20423;-87
2022/11/10 07:18:02;;;;;;;4.20;1.23;;;10.20;97.30;;;;;;4994341;28;20416;-86
2022/11/10 07:20:28;;;;;;;1.40;1.30;;;10.30;97.30;;;;;;4994166;28;20448;-86
2022/11/10 07:23:01;;;;;;;1.23;1.10;;;10.20;97.30;;;;;;5012292;28;20422;-86
2022/11/10 07:25:28;;;;;;;3.70;1.40;;;10.30;97.30;;;;;;4994588;28;20420;-87
2022/11/10 07:27:56;;;;;;;1.10;1.00;;;10.40;97.30;;;;;;4994746;28;21069;-87
2022/11/10 07:30:21;;;;;;;9.67;1.80;;;10.40;97.30;;;;;;4994544;28;20427;-87
2022/11/10 07:32:56;;;;;;;1.17;1.07;;;10.50;97.30;;;;;;4994272;28;20455;-87
2022/11/10 07:35:21;;;;;;;1.13;1.10;;;10.60;97.30;;;;;;4994260;28;20179;-87
2022/11/10 07:37:47;;;;;;;3.90;1.90;;;10.70;97.30;;;;;;4975469;28;20417;-87
2022/11/10 07:40:12;;;;;;;2.77;1.83;;;10.70;97.30;;;;;;4975503;28;20317;-87
2022/11/10 07:42:39;;;;;;;1.23;1.13;;;10.70;97.30;;;;;;4975697;28;20292;-87
2022/11/10 07:45:05;;;;;;;4.43;2.70;;;10.80;97.30;;;;;;4992834;28;20170;-88
2022/11/10 07:47:31;;;;;;;1.00;0.90;;;10.80;97.30;;;;;;4975362;28;20428;-87
2022/11/10 07:49:56;;;;;;;3.77;2.10;;;10.80;97.30;;;;;;4975516;28;20417;-87
2022/11/10 07:52:22;;;;;;;1.27;1.10;;;10.90;97.30;;;;;;4992516;28;20247;-87
2022/11/10 07:54:47;;;;;;;1.37;1.30;;;11.00;97.30;;;;;;4975358;28;20663;-86
2022/11/10 07:57:13;;;;;;;1.20;1.10;;;11.10;97.30;;;;;;4978311;28;20182;-87
2022/11/10 07:59:38;;;;;;;1.10;1.00;;;11.20;97.30;;;;;;4981534;28;20181;-87
2022/11/10 08:02:04;;;;;;;1.03;0.93;;;11.20;97.30;;;;;;4994912;28;20274;-88
2022/11/10 08:04:30;;;;;;;2.20;2.00;;;11.30;97.30;;;;;;4994852;28;20180;-86
2022/11/10 08:06:57;;;;;;;1.67;1.20;;;11.40;97.30;;;;;;4995317;28;20431;-88
2022/11/10 08:09:22;;;;;;;7.93;1.37;;;11.50;97.30;;;;;;4998627;28;20185;-87
2022/11/10 08:11:48;;;;;;;1.37;1.27;;;11.50;97.30;;;;;;4998757;28;20470;-87
2022/11/10 08:14:13;;;;;;;1.43;1.33;;;11.60;97.30;;;;;;4998927;28;20181;-87
2022/11/10 08:16:39;;;;;;;1.00;0.90;;;11.70;97.30;;;;;;4999137;28;20185;-87
2022/11/10 08:19:04;;;;;;;1.07;0.97;;;11.80;97.30;;;;;;4998867;28;20718;-87
2022/11/10 08:21:30;;;;;;;1.10;1.00;;;11.90;97.30;;;;;;4998371;28;20296;-87
2022/11/10 08:23:56;;;;;;;1.40;1.30;;;12.00;97.30;;;;;;4998093;28;20235;-87
2022/11/10 08:26:21;;;;;;;1.00;0.90;;;12.00;97.30;;;;;;4997894;28;20247;-86
2022/11/10 08:28:47;;;;;;;1.37;1.37;;;12.10;97.30;;;;;;4998645;28;20200;-87
2022/11/10 08:31:12;;;;;;;1.43;1.33;;;12.20;97.30;;;;;;4998107;28;20208;-88
2022/11/10 08:33:38;;;;;;;1.70;1.60;;;12.20;97.30;;;;;;4995111;28;20236;-87
2022/11/10 08:36:04;;;;;;;0.70;0.70;;;12.20;97.30;;;;;;4997617;28;20175;-87
2022/11/10 08:38:29;;;;;;;1.43;1.33;;;12.30;97.30;;;;;;4997587;28;20192;-87
2022/11/10 08:40:56;;;;;;;1.10;1.00;;;12.30;97.30;;;;;;5009380;28;20213;-86
2022/11/10 08:43:22;;;;;;;1.63;1.50;;;12.40;97.30;;;;;;4987108;28;20407;-86
2022/11/10 08:45:47;;;;;;;0.97;0.87;;;12.40;97.30;;;;;;4986876;28;20556;-85
2022/11/10 08:48:18;;;;;;;1.10;1.00;;;12.40;97.30;;;;;;5011127;28;20242;-87
2022/11/10 08:50:44;;;;;;;2.20;1.67;;;12.20;97.30;;;;;;4989522;28;20215;-86
2022/11/10 08:53:13;;;;;;;2.00;1.43;;;12.10;97.30;;;;;;4984508;28;20631;-86
2022/11/10 08:55:39;;;;;;;1.20;1.10;;;12.00;97.30;;;;;;4994717;28;20430;-87
2022/11/10 08:58:07;;;;;;;2.00;1.90;;;12.00;97.30;;;;;;4993174;28;20432;-86
2022/11/10 09:00:33;;;;;;;1.70;1.60;;;12.00;97.30;;;;;;4991906;28;20424;-83
2022/11/10 09:03:05;;;;;;;1.27;1.17;;;12.00;97.30;;;;;;5011522;28;20808;-86
2022/11/10 09:05:30;;;;;;;5.03;1.13;;;12.00;97.30;;;;;;4991791;28;20420;-87
2022/11/10 09:07:56;;;;;;;1.57;0.90;;;12.20;97.30;;;;;;4991269;28;20480;-85
2022/11/10 09:10:21;;;;;;;1.10;1.00;;;12.30;97.30;;;;;;5010607;28;20280;-85
2022/11/10 09:12:47;;;;;;;2.40;1.87;;;12.40;97.30;;;;;;4992979;28;20279;-84
2022/11/10 09:15:13;;;;;;;1.50;1.40;;;12.40;97.30;;;;;;4990386;28;20177;-84
2022/11/10 09:17:39;;;;;;;1.30;1.20;;;12.40;97.30;;;;;;4994708;28;20606;-85
2022/11/10 09:20:07;;;;;;;3.10;2.03;;;12.40;97.30;;;;;;4993547;28;20424;-84
2022/11/10 09:22:35;;;;;;;2.30;1.40;;;12.40;97.30;;;;;;4989828;28;21016;-85
2022/11/10 09:25:00;;;;;;;1.20;1.10;;;12.50;97.30;;;;;;4991441;28;20452;-85
2022/11/10 09:27:26;;;;;;;1.70;1.10;;;12.50;97.30;;;;;;4995538;28;20483;-87
2022/11/10 09:29:51;;;;;;;2.20;1.83;;;12.60;97.30;;;;;;5008618;28;20455;-87
2022/11/10 09:32:17;;;;;;;0.93;0.83;;;12.70;97.30;;;;;;4994141;28;20212;-87
2022/11/10 09:34:43;;;;;;;2.50;1.90;;;12.90;97.30;;;;;;4995619;28;20177;-87
2022/11/10 09:37:08;;;;;;;3.70;1.67;;;13.00;97.30;;;;;;4996846;28;20228;-87
2022/11/10 09:39:34;;;;;;;1.10;1.00;;;13.00;97.30;;;;;;4998262;28;20181;-87
2022/11/10 09:42:00;;;;;;;1.47;1.40;;;13.10;97.30;;;;;;4999632;28;20245;-87
2022/11/10 09:44:34;;;;;;;2.03;1.70;;;13.10;97.30;;;;;;4998542;28;20184;-87
2022/11/10 09:47:04;;;;;;;1.70;1.60;;;13.20;97.30;;;;;;4995307;28;20184;-84
2022/11/10 09:49:41;;;;;;;1.83;1.73;;;13.30;97.30;;;;;;4993916;28;20495;-87
2022/11/10 09:52:09;;;;;;;1.80;1.70;;;13.40;97.30;;;;;;4991860;28;20565;-87
2022/11/10 09:54:44;;;;;;;6.93;1.10;;;13.60;97.30;;;;;;4991399;28;20772;-87
2022/11/10 09:57:17;;;;;;;1.60;1.50;;;13.70;97.30;;;;;;4995438;28;20558;-87
2022/11/10 09:59:43;;;;;;;5.63;1.60;;;13.80;97.30;;;;;;4993554;28;20420;-85
2022/11/10 10:02:24;;;;;;;1.27;1.17;;;13.70;97.30;;;;;;4991008;28;20455;-84
2022/11/10 10:05:02;;;;;;;1.00;0.90;;;13.50;97.30;;;;;;4995750;28;20415;-84
2022/11/10 10:07:45;;;;;;;1.50;1.40;;;13.40;97.30;;;;;;4987628;28;20430;-83
2022/11/10 10:10:19;;;;;;;1.27;1.27;;;13.30;97.30;;;;;;4992258;28;20420;-85
2022/11/10 10:13:13;;;;;;;0.97;0.87;;;13.30;97.30;;;;;;4992044;28;20707;-85
2022/11/10 10:16:22;;;;;;;1.43;1.20;;;13.50;97.30;;;;;;4989830;28;20441;-85
2022/11/10 10:19:15;;;;;;;3.03;1.40;;;13.70;97.30;;;;;;5012097;28;20813;-84
2022/11/10 10:22:24;;;;;;;1.93;1.83;;;13.80;97.30;;;;;;4992987;28;20487;-85
2022/11/10 10:24:54;;;;;;;1.00;0.90;;;13.90;97.30;;;;;;4991035;28;20445;-87
2022/11/10 10:27:24;;;;;;;1.30;1.20;;;14.00;97.30;;;;;;4993120;28;20714;-87
2022/11/10 10:29:50;;;;;;;1.80;1.40;;;14.10;97.30;;;;;;4994714;28;20842;-87
2022/11/10 10:32:16;;;;;;;2.83;1.63;;;14.10;97.30;;;;;;4993237;28;20559;-88
2022/11/10 10:34:44;;;;;;;1.20;1.10;;;14.10;97.10;;;;;;4993661;28;20420;-87
2022/11/10 10:37:48;;;;;;;1.40;1.30;;;14.10;97.20;;;;;;4993768;28;21132;-87
2022/11/10 10:40:19;;;;;;;2.20;1.10;;;14.20;97.30;;;;;;4994204;28;20444;-86
2022/11/10 10:42:45;;;;;;;5.80;1.57;;;14.20;97.10;;;;;;4993940;28;20456;-88
2022/11/10 10:45:10;;;;;;;3.00;2.37;;;14.20;97.30;;;;;;5011955;28;20547;-88
2022/11/10 10:47:39;;;;;;;9.57;1.93;;;14.30;97.20;;;;;;4991713;28;20432;-86
2022/11/10 10:50:24;;;;;;;1.30;1.20;;;14.30;97.00;;;;;;4995474;28;20194;-88
2022/11/10 10:53:06;;;;;;;1.30;1.20;;;14.30;97.10;;;;;;4984644;28;21027;-88
2022/11/10 10:55:33;;;;;;;2.50;2.10;;;14.30;97.10;;;;;;4974566;28;20417;-88
2022/11/10 10:58:19;;;;;;;6.63;1.80;;;14.30;97.10;;;;;;4974969;28;20459;-90
2022/11/10 11:00:47;;;;;;;4.43;1.03;;;14.40;97.10;;;;;;4974302;28;20451;-89
2022/11/10 11:03:23;;;;;;;1.07;1.00;;;14.50;97.00;;;;;;4973055;28;20452;-88
2022/11/10 11:06:01;;;;;;;2.27;2.07;;;14.70;97.00;;;;;;4974434;28;20435;-88
2022/11/10 11:08:26;;;;;;;1.70;1.63;;;14.90;96.00;;;;;;4991433;28;20583;-88
2022/11/10 11:10:52;;;;;;;1.10;1.00;;;15.00;95.90;;;;;;4973980;28;20531;-88
2022/11/10 11:13:26;;;;;;;1.60;1.30;;;14.90;95.60;;;;;;4998152;28;20213;-88
2022/11/10 11:16:03;;;;;;;1.20;1.20;;;15.00;95.50;;;;;;5021704;28;20212;-91
2022/11/10 11:18:31;;;;;;;1.60;1.50;;;15.20;95.40;;;;;;5019105;28;20422;-89
2022/11/10 11:20:56;;;;;;;2.13;1.13;;;15.30;95.40;;;;;;4994787;28;20447;-87
2022/11/10 11:23:52;;;;;;;3.33;1.53;;;15.60;95.20;;;;;;4993213;28;20412;-88
2022/11/10 11:26:26;;;;;;;1.20;1.10;;;15.80;94.60;;;;;;4993207;28;20177;-89
2022/11/10 11:29:04;;;;;;;1.20;1.10;;;15.90;93.20;;;;;;5011075;28;20763;-88
2022/11/10 11:31:41;;;;;;;1.20;1.10;;;15.90;93.10;;;;;;4993137;28;20459;-88
2022/11/10 11:34:23;;;;;;;4.40;1.90;;;15.90;92.60;;;;;;4993196;28;20411;-88
2022/11/10 11:37:04;;;;;;;1.33;1.23;;;15.80;92.40;;;;;;4993248;28;20503;-89
2022/11/10 11:40:03;;;;;;;1.57;1.47;;;15.70;92.80;;;;;;4991831;28;20479;-89
2022/11/10 11:43:00;;;;;;;0.90;0.80;;;15.60;93.10;;;;;;4993896;28;20432;-88
2022/11/10 11:45:44;;;;;;;1.20;1.10;;;15.60;93.30;;;;;;4970576;28;20435;-88
2022/11/10 11:48:37;;;;;;;1.37;1.33;;;15.40;93.50;;;;;;4998188;28;20493;-89
2022/11/10 11:51:07;;;;;;;0.90;0.87;;;15.30;93.80;;;;;;4998285;28;20467;-89
2022/11/10 11:53:55;;;;;;;2.27;1.30;;;15.50;93.70;;;;;;5010689;23;20485;-82
2022/11/10 11:56:27;;;;;;;1.13;1.03;;;15.70;93.80;;;;;;4997076;28;20487;-82
2022/11/10 11:59:26;;;;;;;2.10;1.27;;;15.60;93.40;;;;;;4996025;28;20608;-83
2022/11/10 12:02:03;;;;;;;1.37;1.00;;;15.50;93.50;;;;;;4993125;28;20424;-82
2022/11/10 12:04:54;;;;;;;1.33;1.30;;;15.30;93.70;;;;;;4994118;28;20539;-82
2022/11/10 12:07:46;;;;;;;1.13;1.10;;;15.20;94.50;;;;;;4994997;28;20417;-83
2022/11/10 12:10:23;;;;;;;1.13;1.03;;;15.20;94.40;;;;;;4993901;28;20420;-82
2022/11/10 12:12:59;;;;;;;0.70;0.70;;;15.30;94.30;;;;;;4993265;28;20460;-82
2022/11/10 12:16:01;;;;;;;1.93;1.83;;;15.50;94.10;;;;;;4995939;28;20484;-82
2022/11/10 12:18:29;;;;;;;1.10;1.00;;;15.80;93.10;;;;;;5012590;28;20934;-83
2022/11/10 12:21:44;;;;;;;5.00;1.67;;;16.00;91.90;;;;;;5012365;28;20420;-83
2022/11/10 12:24:30;;;;;;;1.30;1.20;;;16.10;92.10;;;;;;4933653;29;20439;-83
2022/11/10 12:27:00;;;;;;;1.43;1.23;;;16.20;91.40;;;;;;5028858;28;20416;-82
2022/11/10 12:29:47;;;;;;;1.37;0.90;;;16.40;91.50;;;;;;5012252;28;20419;-82
2022/11/10 12:32:38;;;;;;;1.20;1.10;;;16.50;90.30;;;;;;5012107;28;20474;-83
2022/11/10 12:35:18;;;;;;;0.90;0.80;;;16.20;90.30;;;;;;4969867;28;20444;-82
2022/11/10 12:37:59;;;;;;;6.47;1.30;;;16.00;91.40;;;;;;5013027;28;20443;-82
2022/11/10 12:40:48;;;;;;;2.20;1.13;;;15.70;91.40;;;;;;5012993;28;20934;-82
2022/11/10 12:43:37;;;;;;;2.13;1.37;;;15.60;92.10;;;;;;5012254;28;20444;-83
2022/11/10 12:46:07;;;;;;;3.03;1.60;;;15.90;92.20;;;;;;5012336;28;20583;-84
2022/11/10 12:48:52;;;;;;;1.40;1.20;;;16.20;91.50;;;;;;5011883;28;20525;-82
2022/11/10 12:51:32;;;;;;;1.77;1.40;;;16.40;90.70;;;;;;5011358;28;20424;-83
2022/11/10 12:53:57;;;;;;;1.13;1.10;;;16.60;89.80;;;;;;5010425;28;20555;-82
2022/11/10 12:56:43;;;;;;;1.10;1.00;;;16.50;89.80;;;;;;5012006;28;20947;-83
2022/11/10 12:59:18;;;;;;;2.33;1.60;;;16.50;89.80;;;;;;5013073;28;20169;-82
2022/11/10 13:01:46;;;;;;;3.20;1.80;;;16.50;89.50;;;;;;5011642;28;20431;-83
2022/11/10 13:04:16;;;;;;;2.93;1.63;;;16.50;89.20;;;;;;5011443;28;20475;-82
2022/11/10 13:06:52;;;;;;;1.37;1.30;;;16.50;89.10;;;;;;5011854;28;20787;-83
2022/11/10 13:09:33;;;;;;;1.40;1.27;;;16.60;89.50;;;;;;5011724;28;20416;-83
2022/11/10 13:12:09;;;;;;;9.60;1.33;;;16.80;89.30;;;;;;5011545;28;20490;-83
2022/11/10 13:14:35;;;;;;;1.87;1.77;;;16.70;89.20;;;;;;5011589;28;20535;-83